createdAt,value
2023-04-01T00:00:49.094Z,518.00
2023-04-01T00:01:49.101Z,542.00
2023-04-01T00:02:49.245Z,562.00
2023-04-01T00:03:49.250Z,553.00
2023-04-01T00:04:49.208Z,592.00
2023-04-01T00:05:49.215Z,576.00
2023-04-01T00:06:49.245Z,592.00
2023-04-01T00:07:49.272Z,610.00
2023-04-01T00:08:49.291Z,627.00
2023-04-01T00:09:49.312Z,597.00
2023-04-01T00:10:49.329Z,595.00
2023-04-01T00:11:49.348Z,588.00
2023-04-01T00:12:49.381Z,582.00
2023-04-01T00:13:49.413Z,584.00
2023-04-01T00:14:49.437Z,574.00
2023-04-01T00:15:49.503Z,560.00
2023-04-01T00:16:49.553Z,583.00
2023-04-01T00:17:49.606Z,542.00
2023-04-01T00:18:49.585Z,561.00
2023-04-01T00:19:49.546Z,553.00
2023-04-01T00:20:49.586Z,566.00
2023-04-01T00:21:49.611Z,572.00
2023-04-01T00:22:49.682Z,587.00
2023-04-01T00:23:49.633Z,616.00
2023-04-01T00:24:49.736Z,605.00
2023-04-01T00:25:49.669Z,596.00
2023-04-01T00:26:49.704Z,605.00
2023-04-01T00:27:49.733Z,615.00
2023-04-01T00:28:49.762Z,626.00
2023-04-01T00:29:49.824Z,631.00
2023-04-01T00:30:49.796Z,652.00
2023-04-01T00:31:49.841Z,655.00
2023-04-01T00:32:49.947Z,663.00
2023-04-01T00:33:49.892Z,649.00
2023-04-01T00:34:49.907Z,645.00
2023-04-01T00:35:49.929Z,655.00
2023-04-01T00:36:49.935Z,654.00
2023-04-01T00:37:49.945Z,648.00
2023-04-01T00:38:49.965Z,665.00
2023-04-01T00:39:49.991Z,714.00
2023-04-01T00:40:50.020Z,745.00
2023-04-01T00:41:50.040Z,724.00
2023-04-01T00:42:50.034Z,759.00
2023-04-01T00:43:50.075Z,741.00
2023-04-01T00:44:50.079Z,735.00
2023-04-01T00:45:50.114Z,781.00
2023-04-01T00:46:50.151Z,810.00
2023-04-01T00:47:50.251Z,833.00
2023-04-01T00:48:50.188Z,828.00
2023-04-01T00:49:50.231Z,799.00
2023-04-01T00:50:50.244Z,841.00
2023-04-01T00:51:50.266Z,848.00
2023-04-01T00:52:50.261Z,845.00
2023-04-01T00:53:50.302Z,821.00
2023-04-01T00:54:50.336Z,821.00
2023-04-01T00:55:50.381Z,811.00
2023-04-01T00:56:50.387Z,807.00
2023-04-01T00:57:50.411Z,826.00
2023-04-01T00:58:50.396Z,844.00
2023-04-01T00:59:50.420Z,828.00
2023-04-01T01:00:50.492Z,842.00
2023-04-01T01:01:50.567Z,819.00
2023-04-01T01:02:50.600Z,838.00
2023-04-01T01:03:51.476Z,778.00
2023-04-01T01:04:50.554Z,732.00
2023-04-01T01:05:50.739Z,772.00
2023-04-01T01:06:50.613Z,783.00
2023-04-01T01:07:50.607Z,781.00
2023-04-01T01:08:50.646Z,788.00
2023-04-01T01:09:50.686Z,778.00
2023-04-01T01:10:50.691Z,766.00
2023-04-01T01:11:50.711Z,763.00
2023-04-01T01:12:50.729Z,743.00
2023-04-01T01:13:50.759Z,737.00
2023-04-01T01:14:50.792Z,759.00
2023-04-01T01:15:50.809Z,747.00
2023-04-01T01:16:50.853Z,722.00
2023-04-01T01:17:50.878Z,701.00
2023-04-01T01:18:50.880Z,713.00
2023-04-01T01:19:50.940Z,712.00
2023-04-01T01:20:50.915Z,700.00
2023-04-01T01:21:50.958Z,708.00
2023-04-01T01:22:50.967Z,673.00
2023-04-01T01:23:50.999Z,655.00
2023-04-01T01:24:51.014Z,667.00
2023-04-01T01:25:51.050Z,653.00
2023-04-01T01:26:51.056Z,653.00
2023-04-01T01:27:51.092Z,661.00
2023-04-01T01:28:51.099Z,646.00
2023-04-01T01:29:51.140Z,650.00
2023-04-01T01:30:51.185Z,654.00
2023-04-01T01:31:51.185Z,684.00
2023-04-01T01:32:51.272Z,731.00
2023-04-01T01:33:51.222Z,741.00
2023-04-01T01:34:51.233Z,792.00
2023-04-01T01:35:51.278Z,801.00
2023-04-01T01:36:51.272Z,820.00
2023-04-01T01:37:51.287Z,816.00
2023-04-01T01:38:51.316Z,847.00
2023-04-01T01:39:51.334Z,873.00
2023-04-01T01:40:51.345Z,861.00
2023-04-01T01:41:51.402Z,837.00
2023-04-01T01:42:51.401Z,825.00
2023-04-01T01:43:51.401Z,812.00
2023-04-01T01:44:51.435Z,812.00
2023-04-01T01:45:51.500Z,748.00
2023-04-01T01:46:51.472Z,742.00
2023-04-01T01:47:51.534Z,761.00
2023-04-01T01:48:51.507Z,813.00
2023-04-01T01:49:51.532Z,743.00
2023-04-01T01:50:51.555Z,763.00
2023-04-01T01:51:51.558Z,789.00
2023-04-01T01:52:51.578Z,859.00
2023-04-01T01:53:51.625Z,848.00
2023-04-01T01:54:51.655Z,898.00
2023-04-01T01:55:51.667Z,923.00
2023-04-01T01:56:51.786Z,971.00
2023-04-01T01:57:51.712Z,963.00
2023-04-01T01:58:51.740Z,971.00
2023-04-01T01:59:51.752Z,953.00
2023-04-01T02:00:51.777Z,978.00
2023-04-01T02:01:51.861Z,961.00
2023-04-01T02:02:51.889Z,947.00
2023-04-01T02:03:51.873Z,952.00
2023-04-01T02:04:51.936Z,921.00
2023-04-01T02:05:51.897Z,936.00
2023-04-01T02:06:51.914Z,888.00
2023-04-01T02:07:51.918Z,866.00
2023-04-01T02:08:51.959Z,885.00
2023-04-01T02:09:52.004Z,906.00
2023-04-01T02:10:52.005Z,871.00
2023-04-01T02:11:52.048Z,875.00
2023-04-01T02:12:52.031Z,867.00
2023-04-01T02:13:52.064Z,874.00
2023-04-01T02:14:52.094Z,813.00
2023-04-01T02:15:52.131Z,837.00
2023-04-01T02:16:52.130Z,820.00
2023-04-01T02:17:52.190Z,855.00
2023-04-01T02:18:52.175Z,827.00
2023-04-01T02:19:52.208Z,792.00
2023-04-01T02:20:52.205Z,776.00
2023-04-01T02:21:52.227Z,771.00
2023-04-01T02:22:52.269Z,769.00
2023-04-01T02:23:52.285Z,785.00
2023-04-01T02:24:52.311Z,793.00
2023-04-01T02:25:52.347Z,774.00
2023-04-01T02:26:52.356Z,746.00
2023-04-01T02:27:52.383Z,775.00
2023-04-01T02:28:52.392Z,730.00
2023-04-01T02:29:52.427Z,738.00
2023-04-01T02:30:52.438Z,747.00
2023-04-01T02:31:52.495Z,755.00
2023-04-01T02:32:52.528Z,749.00
2023-04-01T02:33:52.500Z,752.00
2023-04-01T02:34:52.528Z,721.00
2023-04-01T02:35:52.600Z,709.00
2023-04-01T02:36:52.541Z,738.00
2023-04-01T02:37:52.604Z,760.00
2023-04-01T02:38:52.597Z,772.00
2023-04-01T02:39:52.616Z,805.00
2023-04-01T02:40:52.625Z,840.00
2023-04-01T02:41:52.642Z,882.00
2023-04-01T02:42:52.679Z,923.00
2023-04-01T02:43:52.689Z,935.00
2023-04-01T02:44:52.713Z,931.00
2023-04-01T02:45:52.747Z,946.00
2023-04-01T02:46:52.794Z,915.00
2023-04-01T02:47:52.816Z,920.00
2023-04-01T02:48:52.819Z,905.00
2023-04-01T02:49:52.803Z,922.00
2023-04-01T02:50:52.827Z,937.00
2023-04-01T02:51:52.868Z,979.00
2023-04-01T02:52:52.877Z,1004.00
2023-04-01T02:53:52.889Z,975.00
2023-04-01T02:54:52.904Z,985.00
2023-04-01T02:55:52.945Z,1025.00
2023-04-01T02:56:53.017Z,1065.00
2023-04-01T02:57:52.997Z,1039.00
2023-04-01T02:58:53.031Z,990.00
2023-04-01T02:59:53.029Z,973.00
2023-04-01T03:00:53.111Z,943.00
2023-04-01T03:01:53.091Z,959.00
2023-04-01T03:02:53.199Z,922.00
2023-04-01T03:03:53.117Z,885.00
2023-04-01T03:04:53.143Z,871.00
2023-04-01T03:05:53.159Z,901.00
2023-04-01T03:06:53.203Z,917.00
2023-04-01T03:07:53.242Z,906.00
2023-04-01T03:08:53.224Z,910.00
2023-04-01T03:09:53.252Z,907.00
2023-04-01T03:10:53.269Z,898.00
2023-04-01T03:11:53.321Z,920.00
2023-04-01T03:12:53.314Z,916.00
2023-04-01T03:13:53.331Z,918.00
2023-04-01T03:14:53.376Z,959.00
2023-04-01T03:15:53.395Z,964.00
2023-04-01T03:16:53.452Z,955.00
2023-04-01T03:17:53.443Z,969.00
2023-04-01T03:18:53.466Z,951.00
2023-04-01T03:19:53.480Z,912.00
2023-04-01T03:20:53.516Z,924.00
2023-04-01T03:21:53.534Z,943.00
2023-04-01T03:22:53.546Z,951.00
2023-04-01T03:23:53.561Z,921.00
2023-04-01T03:24:53.592Z,900.00
2023-04-01T03:25:53.623Z,885.00
2023-04-01T03:26:53.614Z,911.00
2023-04-01T03:27:53.639Z,929.00
2023-04-01T03:28:53.674Z,920.00
2023-04-01T03:29:53.725Z,875.00
2023-04-01T03:30:53.737Z,881.00
2023-04-01T03:31:53.742Z,891.00
2023-04-01T03:32:53.783Z,886.00
2023-04-01T03:33:53.784Z,885.00
2023-04-01T03:34:53.800Z,892.00
2023-04-01T03:35:53.816Z,908.00
2023-04-01T03:36:53.846Z,898.00
2023-04-01T03:37:53.891Z,870.00
2023-04-01T03:38:53.886Z,856.00
2023-04-01T03:39:53.921Z,834.00
2023-04-01T03:40:53.916Z,824.00
2023-04-01T03:41:53.938Z,843.00
2023-04-01T03:42:54.026Z,853.00
2023-04-01T03:43:54.014Z,861.00
2023-04-01T03:44:54.001Z,865.00
2023-04-01T03:45:54.066Z,863.00
2023-04-01T03:46:54.056Z,875.00
2023-04-01T03:47:54.116Z,868.00
2023-04-01T03:48:54.102Z,872.00
2023-04-01T03:49:54.119Z,897.00
2023-04-01T03:50:54.138Z,930.00
2023-04-01T03:51:54.144Z,934.00
2023-04-01T03:52:54.187Z,945.00
2023-04-01T03:53:54.180Z,955.00
2023-04-01T03:54:54.226Z,947.00
2023-04-01T03:55:54.230Z,985.00
2023-04-01T03:56:54.288Z,1001.00
2023-04-01T03:57:54.283Z,988.00
2023-04-01T03:58:54.300Z,992.00
2023-04-01T03:59:54.314Z,993.00
2023-04-01T04:00:54.343Z,1021.00
2023-04-01T04:01:54.369Z,1023.00
2023-04-01T04:02:54.454Z,1004.00
2023-04-01T04:03:54.478Z,996.00
2023-04-01T04:04:54.453Z,994.00
2023-04-01T04:05:54.446Z,987.00
2023-04-01T04:06:54.456Z,968.00
2023-04-01T04:07:54.495Z,993.00
2023-04-01T04:08:54.510Z,969.00
2023-04-01T04:09:54.538Z,957.00
2023-04-01T04:10:54.576Z,983.00
2023-04-01T04:11:54.576Z,978.00
2023-04-01T04:12:54.618Z,957.00
2023-04-01T04:13:56.072Z,980.00
2023-04-01T04:14:54.689Z,986.00
2023-04-01T04:15:54.700Z,994.00
2023-04-01T04:16:54.692Z,1008.00
2023-04-01T04:17:54.788Z,1020.00
2023-04-01T04:18:54.752Z,1041.00
2023-04-01T04:19:54.771Z,1051.00
2023-04-01T04:20:54.790Z,1024.00
2023-04-01T04:21:54.815Z,1049.00
2023-04-01T04:22:54.823Z,1070.00
2023-04-01T04:23:54.876Z,1071.00
2023-04-01T04:24:54.872Z,1069.00
2023-04-01T04:25:54.922Z,1051.00
2023-04-01T04:26:54.929Z,1015.00
2023-04-01T04:27:54.944Z,1037.00
2023-04-01T04:28:54.986Z,1054.00
2023-04-01T04:29:55.011Z,1067.00
2023-04-01T04:30:55.038Z,1074.00
2023-04-01T04:31:55.153Z,1044.00
2023-04-01T04:32:55.111Z,1069.00
2023-04-01T04:33:55.089Z,1068.00
2023-04-01T04:34:55.118Z,1076.00
2023-04-01T04:35:55.200Z,1085.00
2023-04-01T04:36:55.143Z,1107.00
2023-04-01T04:37:55.165Z,1113.00
2023-04-01T04:38:55.184Z,1119.00
2023-04-01T04:39:55.217Z,1111.00
2023-04-01T04:40:55.253Z,1096.00
2023-04-01T04:41:55.285Z,1075.00
2023-04-01T04:42:55.273Z,1108.00
2023-04-01T04:43:55.303Z,1093.00
2023-04-01T04:44:55.325Z,1100.00
2023-04-01T04:45:55.344Z,1081.00
2023-04-01T04:46:57.131Z,1057.00
2023-04-01T04:47:55.366Z,1051.00
2023-04-01T04:48:55.374Z,1042.00
2023-04-01T04:49:55.328Z,1056.00
2023-04-01T04:50:55.367Z,1066.00
2023-04-01T04:51:55.330Z,1069.00
2023-04-01T04:52:55.324Z,1066.00
2023-04-01T04:53:55.308Z,1064.00
2023-04-01T04:54:55.298Z,1060.00
2023-04-01T04:55:55.292Z,1057.00
2023-04-01T04:56:55.354Z,1044.00
2023-04-01T04:57:55.287Z,1067.00
2023-04-01T04:58:55.288Z,1059.00
2023-04-01T04:59:55.262Z,1042.00
2023-04-01T05:00:55.314Z,1050.00
2023-04-01T05:01:55.262Z,1040.00
2023-04-01T05:02:55.420Z,1037.00
2023-04-01T05:03:55.228Z,1050.00
2023-04-01T05:04:55.225Z,1051.00
2023-04-01T05:05:55.214Z,1072.00
2023-04-01T05:06:55.232Z,1051.00
2023-04-01T05:07:55.244Z,1065.00
2023-04-01T05:08:55.202Z,1098.00
2023-04-01T05:09:55.208Z,1097.00
2023-04-01T05:10:55.201Z,1119.00
2023-04-01T05:11:55.199Z,1120.00
2023-04-01T05:12:55.196Z,1138.00
2023-04-01T05:13:55.170Z,1150.00
2023-04-01T05:14:55.166Z,1165.00
2023-04-01T05:15:55.185Z,1158.00
2023-04-01T05:16:55.431Z,1158.00
2023-04-01T05:17:55.321Z,1186.00
2023-04-01T05:18:55.144Z,1192.00
2023-04-01T05:19:55.142Z,1174.00
2023-04-01T05:20:55.136Z,1182.00
2023-04-01T05:21:55.111Z,1189.00
2023-04-01T05:22:55.114Z,1209.00
2023-04-01T05:23:55.105Z,1201.00
2023-04-01T05:24:55.117Z,1205.00
2023-04-01T05:25:55.085Z,1194.00
2023-04-01T05:26:55.887Z,1200.00
2023-04-01T05:27:55.087Z,1202.00
2023-04-01T05:28:55.084Z,1193.00
2023-04-01T05:29:55.093Z,1203.00
2023-04-01T05:30:55.109Z,1199.00
2023-04-01T05:31:55.062Z,1195.00
2023-04-01T05:32:55.128Z,1206.00
2023-04-01T05:33:55.046Z,1218.00
2023-04-01T05:34:55.024Z,1220.00
2023-04-01T05:35:55.051Z,1226.00
2023-04-01T05:36:55.011Z,1228.00
2023-04-01T05:37:55.014Z,1241.00
2023-04-01T05:38:55.001Z,1248.00
2023-04-01T05:39:54.983Z,1247.00
2023-04-01T05:40:54.974Z,1244.00
2023-04-01T05:41:54.973Z,1253.00
2023-04-01T05:42:54.984Z,1254.00
2023-04-01T05:43:54.954Z,1258.00
2023-04-01T05:44:54.947Z,1252.00
2023-04-01T05:45:55.022Z,1265.00
2023-04-01T05:46:54.996Z,1293.00
2023-04-01T05:47:55.091Z,1290.00
2023-04-01T05:48:55.065Z,1272.00
2023-04-01T05:49:55.069Z,1278.00
2023-04-01T05:50:55.110Z,1282.00
2023-04-01T05:51:55.126Z,1283.00
2023-04-01T05:52:55.158Z,1277.00
2023-04-01T05:53:55.173Z,1259.00
2023-04-01T05:54:55.205Z,1275.00
2023-04-01T05:55:55.238Z,1259.00
2023-04-01T05:56:55.297Z,1231.00
2023-04-01T05:57:55.281Z,1234.00
2023-04-01T05:58:55.307Z,1238.00
2023-04-01T05:59:55.327Z,1228.00
2023-04-01T06:01:08.143Z,1208.00
2023-04-01T06:01:57.732Z,1209.00
2023-04-01T06:02:55.369Z,1211.00
2023-04-01T06:03:55.518Z,1209.00
2023-04-01T06:04:55.362Z,1195.00
2023-04-01T06:05:55.311Z,1212.00
2023-04-01T06:06:55.332Z,1208.00
2023-04-01T06:07:55.303Z,1194.00
2023-04-01T06:08:55.280Z,1200.00
2023-04-01T06:09:55.291Z,1191.00
2023-04-01T06:10:55.287Z,1204.00
2023-04-01T06:11:55.274Z,1208.00
2023-04-01T06:12:55.269Z,1210.00
2023-04-01T06:13:55.244Z,1216.00
2023-04-01T06:14:55.241Z,1232.00
2023-04-01T06:15:55.261Z,1234.00
2023-04-01T06:16:55.238Z,1248.00
2023-04-01T06:17:55.286Z,1241.00
2023-04-01T06:18:55.226Z,1244.00
2023-04-01T06:19:55.229Z,1255.00
2023-04-01T06:20:55.208Z,1241.00
2023-04-01T06:21:55.210Z,1249.00
2023-04-01T06:22:55.208Z,1245.00
2023-04-01T06:23:55.190Z,1236.00
2023-04-01T06:24:55.166Z,1245.00
2023-04-01T06:25:55.187Z,1259.00
2023-04-01T06:26:55.176Z,1253.00
2023-04-01T06:27:55.154Z,1267.00
2023-04-01T06:28:55.204Z,1235.00
2023-04-01T06:29:55.154Z,1240.00
2023-04-01T06:30:55.159Z,1241.00
2023-04-01T06:31:55.183Z,1228.00
2023-04-01T06:32:55.195Z,1241.00
2023-04-01T06:33:55.177Z,1235.00
2023-04-01T06:34:55.108Z,1220.00
2023-04-01T06:35:55.212Z,1210.00
2023-04-01T06:36:55.099Z,1202.00
2023-04-01T06:37:55.095Z,1199.00
2023-04-01T06:38:55.081Z,1214.00
2023-04-01T06:39:55.077Z,1208.00
2023-04-01T06:40:55.081Z,1192.00
2023-04-01T06:41:55.078Z,1185.00
2023-04-01T06:42:55.079Z,1182.00
2023-04-01T06:43:55.068Z,1197.00
2023-04-01T06:44:55.053Z,1174.00
2023-04-01T06:45:55.057Z,1185.00
2023-04-01T06:46:55.047Z,1186.00
2023-04-01T06:47:55.043Z,1172.00
2023-04-01T06:48:55.032Z,1189.00
2023-04-01T06:49:55.031Z,1183.00
2023-04-01T06:50:55.028Z,1204.00
2023-04-01T06:51:55.191Z,1187.00
2023-04-01T06:52:55.004Z,1200.00
2023-04-01T06:53:54.968Z,1198.00
2023-04-01T06:54:54.978Z,1222.00
2023-04-01T06:55:54.991Z,1215.00
2023-04-01T06:56:54.976Z,1229.00
2023-04-01T06:57:54.961Z,1227.00
2023-04-01T06:58:54.947Z,1218.00
2023-04-01T06:59:54.935Z,1222.00
2023-04-01T07:00:54.957Z,1238.00
2023-04-01T07:01:54.968Z,1237.00
2023-04-01T07:02:54.965Z,1230.00
2023-04-01T07:03:54.971Z,1251.00
2023-04-01T07:04:54.916Z,1253.00
2023-04-01T07:05:54.913Z,1258.00
2023-04-01T07:06:54.880Z,1263.00
2023-04-01T07:07:54.895Z,1282.00
2023-04-01T07:08:54.884Z,1289.00
2023-04-01T07:09:54.864Z,1298.00
2023-04-01T07:10:54.864Z,1302.00
2023-04-01T07:11:54.864Z,1295.00
2023-04-01T07:12:54.859Z,1323.00
2023-04-01T07:13:54.853Z,1340.00
2023-04-01T07:14:54.846Z,1346.00
2023-04-01T07:15:56.087Z,1342.00
2023-04-01T07:16:54.892Z,1346.00
2023-04-01T07:17:55.031Z,1335.00
2023-04-01T07:18:54.981Z,1337.00
2023-04-01T07:19:55.046Z,1359.00
2023-04-01T07:20:55.142Z,1347.00
2023-04-01T07:21:55.168Z,1358.00
2023-04-01T07:22:55.224Z,1356.00
2023-04-01T07:23:55.272Z,1362.00
2023-04-01T07:24:55.325Z,1367.00
2023-04-01T07:25:55.609Z,1355.00
2023-04-01T07:26:55.430Z,1364.00
2023-04-01T07:27:55.467Z,1378.00
2023-04-01T07:28:55.536Z,1373.00
2023-04-01T07:29:55.588Z,1368.00
2023-04-01T07:30:55.697Z,1376.00
2023-04-01T07:31:55.692Z,1368.00
2023-04-01T07:32:55.773Z,1372.00
2023-04-01T07:33:55.800Z,1378.00
2023-04-01T07:34:55.828Z,1374.00
2023-04-01T07:35:55.881Z,1379.00
2023-04-01T07:36:55.923Z,1373.00
2023-04-01T07:37:55.995Z,1365.00
2023-04-01T07:38:56.056Z,1363.00
2023-04-01T07:39:56.081Z,1362.00
2023-04-01T07:40:56.136Z,1367.00
2023-04-01T07:41:56.182Z,1355.00
2023-04-01T07:42:56.223Z,1359.00
2023-04-01T07:43:56.285Z,1367.00
2023-04-01T07:44:56.329Z,1372.00
2023-04-01T07:45:56.428Z,1364.00
2023-04-01T07:46:56.449Z,1370.00
2023-04-01T07:47:56.534Z,1354.00
2023-04-01T07:48:56.561Z,1337.00
2023-04-01T07:49:56.580Z,1341.00
2023-04-01T07:50:56.652Z,1335.00
2023-04-01T07:51:56.710Z,1323.00
2023-04-01T07:52:56.750Z,1326.00
2023-04-01T07:53:56.847Z,1316.00
2023-04-01T07:54:56.835Z,1310.00
2023-04-01T07:55:56.893Z,1317.00
2023-04-01T07:56:56.966Z,1307.00
2023-04-01T07:57:56.977Z,1295.00
2023-04-01T07:58:57.044Z,1294.00
2023-04-01T07:59:57.060Z,1302.00
2023-04-01T08:00:57.074Z,1304.00
2023-04-01T08:01:57.118Z,1300.00
2023-04-01T08:02:57.209Z,1311.00
2023-04-01T08:03:57.286Z,1343.00
2023-04-01T08:04:57.365Z,1322.00
2023-04-01T08:05:57.229Z,1310.00
2023-04-01T08:06:57.255Z,1299.00
2023-04-01T08:07:57.274Z,1293.00
2023-04-01T08:08:57.307Z,1289.00
2023-04-01T08:09:57.295Z,1276.00
2023-04-01T08:10:57.341Z,1266.00
2023-04-01T08:11:57.327Z,1239.00
2023-04-01T08:12:57.331Z,1221.00
2023-04-01T08:13:57.341Z,1227.00
2023-04-01T08:14:57.343Z,1226.00
2023-04-01T08:15:57.390Z,1191.00
2023-04-01T08:16:57.361Z,1194.00
2023-04-01T08:17:57.382Z,1191.00
2023-04-01T08:18:57.378Z,1168.00
2023-04-01T08:19:57.372Z,1174.00
2023-04-01T08:20:57.366Z,1189.00
2023-04-01T08:21:57.375Z,1179.00
2023-04-01T08:22:57.350Z,1169.00
2023-04-01T08:23:57.356Z,1154.00
2023-04-01T08:24:57.352Z,1158.00
2023-04-01T08:25:57.370Z,1148.00
2023-04-01T08:26:57.356Z,1163.00
2023-04-01T08:27:57.382Z,1132.00
2023-04-01T08:28:57.395Z,1120.00
2023-04-01T08:29:57.418Z,1126.00
2023-04-01T08:30:57.453Z,1092.00
2023-04-01T08:31:57.478Z,1081.00
2023-04-01T08:32:57.512Z,1088.00
2023-04-01T08:33:57.494Z,1068.00
2023-04-01T08:34:57.543Z,1060.00
2023-04-01T08:35:57.643Z,1037.00
2023-04-01T08:36:57.607Z,1048.00
2023-04-01T08:37:57.675Z,1027.00
2023-04-01T08:38:57.726Z,1027.00
2023-04-01T08:39:57.767Z,1032.00
2023-04-01T08:40:57.814Z,998.00
2023-04-01T08:41:57.880Z,985.00
2023-04-01T08:42:57.939Z,964.00
2023-04-01T08:43:57.972Z,962.00
2023-04-01T08:44:58.030Z,935.00
2023-04-01T08:45:58.178Z,920.00
2023-04-01T08:46:58.150Z,892.00
2023-04-01T08:47:58.242Z,872.00
2023-04-01T08:48:58.277Z,895.00
2023-04-01T08:49:58.339Z,901.00
2023-04-01T08:50:58.391Z,874.00
2023-04-01T08:51:58.449Z,843.00
2023-04-01T08:52:58.526Z,874.00
2023-04-01T08:53:58.587Z,903.00
2023-04-01T08:54:58.640Z,863.00
2023-04-01T08:55:58.715Z,874.00
2023-04-01T08:56:58.768Z,862.00
2023-04-01T08:57:58.799Z,888.00
2023-04-01T08:58:58.893Z,881.00
2023-04-01T08:59:58.900Z,874.00
2023-04-01T09:00:58.943Z,880.00
2023-04-01T09:01:59.055Z,870.00
2023-04-01T09:02:59.139Z,830.00
2023-04-01T09:03:59.198Z,838.00
2023-04-01T09:04:59.176Z,835.00
2023-04-01T09:05:59.206Z,860.00
2023-04-01T09:06:59.254Z,782.00
2023-04-01T09:07:59.277Z,812.00
2023-04-01T09:08:59.336Z,857.00
2023-04-01T09:09:59.388Z,786.00
2023-04-01T09:10:59.422Z,768.00
2023-04-01T09:11:59.496Z,769.00
2023-04-01T09:12:59.502Z,727.00
2023-04-01T09:13:59.535Z,731.00
2023-04-01T09:14:59.589Z,679.00
2023-04-01T09:15:59.671Z,679.00
2023-04-01T09:16:59.639Z,673.00
2023-04-01T09:17:59.666Z,743.00
2023-04-01T09:18:59.703Z,733.00
2023-04-01T09:19:59.740Z,743.00
2023-04-01T09:20:59.755Z,764.00
2023-04-01T09:21:59.796Z,725.00
2023-04-01T09:22:59.810Z,702.00
2023-04-01T09:23:59.860Z,663.00
2023-04-01T09:24:59.890Z,658.00
2023-04-01T09:25:59.900Z,665.00
2023-04-01T09:26:59.981Z,678.00
2023-04-01T09:27:59.977Z,672.00
2023-04-01T09:28:59.992Z,673.00
2023-04-01T09:30:00.010Z,697.00
2023-04-01T09:31:00.079Z,724.00
2023-04-01T09:32:00.105Z,692.00
2023-04-01T09:33:00.116Z,671.00
2023-04-01T09:34:00.120Z,659.00
2023-04-01T09:35:00.207Z,690.00
2023-04-01T09:36:00.205Z,662.00
2023-04-01T09:37:00.233Z,661.00
2023-04-01T09:38:00.239Z,657.00
2023-04-01T09:39:00.252Z,655.00
2023-04-01T09:40:00.278Z,677.00
2023-04-01T09:41:00.283Z,672.00
2023-04-01T09:42:00.304Z,680.00
2023-04-01T09:43:00.321Z,665.00
2023-04-01T09:44:00.357Z,678.00
2023-04-01T09:45:00.403Z,662.00
2023-04-01T09:46:00.413Z,646.00
2023-04-01T09:47:00.440Z,668.00
2023-04-01T09:48:00.470Z,657.00
2023-04-01T09:49:00.436Z,652.00
2023-04-01T09:50:00.706Z,652.00
2023-04-01T09:51:00.480Z,633.00
2023-04-01T09:52:00.499Z,658.00
2023-04-01T09:53:00.503Z,659.00
2023-04-01T09:54:00.508Z,647.00
2023-04-01T09:55:00.532Z,662.00
2023-04-01T09:56:00.545Z,664.00
2023-04-01T09:57:00.604Z,639.00
2023-04-01T09:58:00.608Z,636.00
2023-04-01T09:59:00.626Z,633.00
2023-04-01T10:00:00.621Z,637.00
2023-04-01T10:01:00.629Z,636.00
2023-04-01T10:02:00.685Z,634.00
2023-04-01T10:03:00.802Z,634.00
2023-04-01T10:04:00.700Z,620.00
2023-04-01T10:05:00.696Z,635.00
2023-04-01T10:06:00.764Z,619.00
2023-04-01T10:07:00.739Z,638.00
2023-04-01T10:08:00.747Z,638.00
2023-04-01T10:09:00.741Z,635.00
2023-04-01T10:10:00.777Z,633.00
2023-04-01T10:11:00.796Z,629.00
2023-04-01T10:12:00.807Z,632.00
2023-04-01T10:13:00.807Z,622.00
2023-04-01T10:14:00.820Z,636.00
2023-04-01T10:15:00.855Z,630.00
2023-04-01T10:16:00.882Z,620.00
2023-04-01T10:17:00.887Z,613.00
2023-04-01T10:18:00.910Z,623.00
2023-04-01T10:19:00.921Z,623.00
2023-04-01T10:20:00.921Z,613.00
2023-04-01T10:21:00.934Z,622.00
2023-04-01T10:22:00.977Z,637.00
2023-04-01T10:23:00.965Z,608.00
2023-04-01T10:24:00.997Z,608.00
2023-04-01T10:25:01.021Z,612.00
2023-04-01T10:26:01.015Z,604.00
2023-04-01T10:27:01.039Z,610.00
2023-04-01T10:28:01.056Z,616.00
2023-04-01T10:29:01.075Z,610.00
2023-04-01T10:30:01.082Z,612.00
2023-04-01T10:31:01.123Z,611.00
2023-04-01T10:32:01.156Z,626.00
2023-04-01T10:33:01.156Z,616.00
2023-04-01T10:34:01.134Z,617.00
2023-04-01T10:35:01.200Z,603.00
2023-04-01T10:36:01.222Z,605.00
2023-04-01T10:37:01.186Z,575.00
2023-04-01T10:38:01.204Z,599.00
2023-04-01T10:39:01.217Z,594.00
2023-04-01T10:40:01.252Z,578.00
2023-04-01T10:41:01.254Z,610.00
2023-04-01T10:42:01.270Z,611.00
2023-04-01T10:43:01.271Z,597.00
2023-04-01T10:44:01.298Z,596.00
2023-04-01T10:45:01.309Z,581.00
2023-04-01T10:46:01.377Z,589.00
2023-04-01T10:47:01.342Z,596.00
2023-04-01T10:48:01.392Z,604.00
2023-04-01T10:49:01.359Z,602.00
2023-04-01T10:50:01.385Z,596.00
2023-04-01T10:51:01.387Z,599.00
2023-04-01T10:52:01.407Z,610.00
2023-04-01T10:53:01.402Z,587.00
2023-04-01T10:54:01.438Z,606.00
2023-04-01T10:55:01.471Z,596.00
2023-04-01T10:56:01.464Z,606.00
2023-04-01T10:57:01.541Z,605.00
2023-04-01T10:58:01.539Z,605.00
2023-04-01T10:59:01.515Z,605.00
2023-04-01T11:00:01.522Z,599.00
2023-04-01T11:01:01.607Z,598.00
2023-04-01T11:02:11.321Z,610.00
2023-04-01T11:03:02.622Z,604.00
2023-04-01T11:04:01.550Z,611.00
2023-04-01T11:05:01.526Z,610.00
2023-04-01T11:06:01.537Z,611.00
2023-04-01T11:07:01.504Z,606.00
2023-04-01T11:08:06.507Z,608.00
2023-04-01T11:09:02.515Z,609.00
2023-04-01T11:10:01.497Z,611.00
2023-04-01T11:11:01.485Z,613.00
2023-04-01T11:12:01.471Z,602.00
2023-04-01T11:13:01.472Z,602.00
2023-04-01T11:14:01.471Z,588.00
2023-04-01T11:15:01.485Z,589.00
2023-04-01T11:16:01.486Z,597.00
2023-04-01T11:17:01.467Z,612.00
2023-04-01T11:18:01.464Z,611.00
2023-04-01T11:19:01.436Z,594.00
2023-04-01T11:20:01.427Z,596.00
2023-04-01T11:21:01.420Z,628.00
2023-04-01T11:22:01.432Z,602.00
2023-04-01T11:23:01.399Z,603.00
2023-04-01T11:24:05.386Z,604.00
2023-04-01T11:25:01.420Z,605.00
2023-04-01T11:26:01.402Z,605.00
2023-04-01T11:27:01.432Z,605.00
2023-04-01T11:28:01.384Z,608.00
2023-04-01T11:29:01.374Z,615.00
2023-04-01T11:30:01.372Z,613.00
2023-04-01T11:31:01.412Z,616.00
2023-04-01T11:32:01.353Z,604.00
2023-04-01T11:33:01.347Z,617.00
2023-04-01T11:34:01.344Z,607.00
2023-04-01T11:35:01.339Z,594.00
2023-04-01T11:36:01.322Z,614.00
2023-04-01T11:37:01.300Z,592.00
2023-04-01T11:38:01.316Z,611.00
2023-04-01T11:39:01.299Z,615.00
2023-04-01T11:40:01.296Z,588.00
2023-04-01T11:41:01.291Z,592.00
2023-04-01T11:42:01.295Z,594.00
2023-04-01T11:43:01.282Z,589.00
2023-04-01T11:44:01.284Z,599.00
2023-04-01T11:45:01.251Z,603.00
2023-04-01T11:46:01.272Z,601.00
2023-04-01T11:47:01.245Z,599.00
2023-04-01T11:48:01.275Z,597.00
2023-04-01T11:49:01.230Z,588.00
2023-04-01T11:50:01.223Z,609.00
2023-04-01T11:51:01.231Z,609.00
2023-04-01T11:52:01.230Z,606.00
2023-04-01T11:53:01.213Z,612.00
2023-04-01T11:54:01.213Z,604.00
2023-04-01T11:55:01.204Z,629.00
2023-04-01T11:56:01.190Z,604.00
2023-04-01T11:57:01.202Z,603.00
2023-04-01T11:58:01.194Z,621.00
2023-04-01T11:59:01.158Z,619.00
2023-04-01T12:00:01.183Z,609.00
2023-04-01T12:01:01.160Z,604.00
2023-04-01T12:02:01.141Z,612.00
2023-04-01T12:03:01.271Z,602.00
2023-04-01T12:04:01.291Z,600.00
2023-04-01T12:05:01.268Z,618.00
2023-04-01T12:06:01.231Z,612.00
2023-04-01T12:07:01.256Z,612.00
2023-04-01T12:08:01.281Z,589.00
2023-04-01T12:09:01.306Z,584.00
2023-04-01T12:10:01.367Z,602.00
2023-04-01T12:11:01.375Z,614.00
2023-04-01T12:12:01.384Z,624.00
2023-04-01T12:13:02.090Z,626.00
2023-04-01T12:14:01.435Z,596.00
2023-04-01T12:15:01.442Z,596.00
2023-04-01T12:16:01.576Z,594.00
2023-04-01T12:17:01.525Z,587.00
2023-04-01T12:18:01.570Z,605.00
2023-04-01T12:19:01.556Z,593.00
2023-04-01T12:20:01.609Z,597.00
2023-04-01T12:21:01.617Z,595.00